sensor_id;sensor_type;location;lat;lon;timestamp;pressure;altitude;pressure_sealevel;temperature;humidity
4410;BME280;2218;51.408;7.208;2023-02-19T00:01:08;99861.81;;;18.97;49.12
4410;BME280;2218;51.408;7.208;2023-02-19T00:03:36;99864.44;;;18.97;49.40
4410;BME280;2218;51.408;7.208;2023-02-19T00:06:04;99869.72;;;18.97;49.20
4410;BME280;2218;51.408;7.208;2023-02-19T00:08:35;99860.13;;;18.96;49.28
4410;BME280;2218;51.408;7.208;2023-02-19T00:11:04;99864.56;;;18.95;49.47
4410;BME280;2218;51.408;7.208;2023-02-19T00:13:35;99863.72;;;18.95;49.36
4410;BME280;2218;51.408;7.208;2023-02-19T00:16:05;99856.72;;;18.94;49.22
4410;BME280;2218;51.408;7.208;2023-02-19T00:18:33;99861.91;;;18.95;49.49
4410;BME280;2218;51.408;7.208;2023-02-19T00:21:00;99862.00;;;18.94;49.42
4410;BME280;2218;51.408;7.208;2023-02-19T00:23:27;99859.34;;;18.94;49.40
4410;BME280;2218;51.408;7.208;2023-02-19T00:25:55;99856.72;;;18.94;49.48
4410;BME280;2218;51.408;7.208;2023-02-19T00:28:22;99865.59;;;18.93;49.21
4410;BME280;2218;51.408;7.208;2023-02-19T00:30:49;99855.88;;;18.93;49.49
4410;BME280;2218;51.408;7.208;2023-02-19T00:33:16;99855.03;;;18.93;49.22
4410;BME280;2218;51.408;7.208;2023-02-19T00:35:43;99854.19;;;18.92;49.29
4410;BME280;2218;51.408;7.208;2023-02-19T00:38:09;99855.03;;;18.93;49.26
4410;BME280;2218;51.408;7.208;2023-02-19T00:40:37;99843.78;;;18.91;49.49
4410;BME280;2218;51.408;7.208;2023-02-19T00:43:05;99845.56;;;18.90;49.27
4410;BME280;2218;51.408;7.208;2023-02-19T00:45:32;99842.00;;;18.91;49.36
4410;BME280;2218;51.408;7.208;2023-02-19T00:48:00;99834.19;;;18.90;49.36
4410;BME280;2218;51.408;7.208;2023-02-19T00:50:27;99833.31;;;18.89;49.21
4410;BME280;2218;51.408;7.208;2023-02-19T00:52:54;99839.47;;;18.90;49.41
4410;BME280;2218;51.408;7.208;2023-02-19T00:55:21;99836.84;;;18.90;49.35
4410;BME280;2218;51.408;7.208;2023-02-19T00:57:47;99832.47;;;18.89;49.30
4410;BME280;2218;51.408;7.208;2023-02-19T01:00:16;99832.47;;;18.89;49.27
4410;BME280;2218;51.408;7.208;2023-02-19T01:02:43;99830.81;;;18.88;49.45
4410;BME280;2218;51.408;7.208;2023-02-19T01:05:10;99829.13;;;18.87;49.46
4410;BME280;2218;51.408;7.208;2023-02-19T01:07:37;99827.22;;;18.89;49.43
4410;BME280;2218;51.408;7.208;2023-02-19T01:10:05;99830.81;;;18.88;49.15
4410;BME280;2218;51.408;7.208;2023-02-19T01:12:32;99828.28;;;18.86;49.28
4410;BME280;2218;51.408;7.208;2023-02-19T01:14:59;99832.69;;;18.85;49.37
4410;BME280;2218;51.408;7.208;2023-02-19T01:17:27;99828.28;;;18.86;48.97
4410;BME280;2218;51.408;7.208;2023-02-19T01:19:54;99832.69;;;18.85;49.30
4410;BME280;2218;51.408;7.208;2023-02-19T01:22:21;99825.72;;;18.84;49.62
4410;BME280;2218;51.408;7.208;2023-02-19T01:24:48;99828.34;;;18.84;49.62
4410;BME280;2218;51.408;7.208;2023-02-19T01:27:15;99829.31;;;18.83;49.44
4410;BME280;2218;51.408;7.208;2023-02-19T01:29:43;99830.16;;;18.84;49.63
4410;BME280;2218;51.408;7.208;2023-02-19T01:32:10;99830.16;;;18.84;49.36
4410;BME280;2218;51.408;7.208;2023-02-19T01:34:38;99825.72;;;18.84;49.55
4410;BME280;2218;51.408;7.208;2023-02-19T01:37:05;99824.03;;;18.83;49.59
4410;BME280;2218;51.408;7.208;2023-02-19T01:39:36;99825.00;;;18.82;49.31
4410;BME280;2218;51.408;7.208;2023-02-19T01:42:04;99823.31;;;18.81;49.58
4410;BME280;2218;51.408;7.208;2023-02-19T01:45:25;99820.69;;;18.81;49.61
4410;BME280;2218;51.408;7.208;2023-02-19T01:48:06;99815.41;;;18.81;49.25
4410;BME280;2218;51.408;7.208;2023-02-19T01:50:44;99819.72;;;18.82;49.52
4410;BME280;2218;51.408;7.208;2023-02-19T01:53:16;99818.88;;;18.82;49.58
4410;BME280;2218;51.408;7.208;2023-02-19T01:55:47;99808.47;;;18.80;49.48
4410;BME280;2218;51.408;7.208;2023-02-19T01:58:17;99818.16;;;18.80;49.45
4410;BME280;2218;51.408;7.208;2023-02-19T02:00:44;99824.25;;;18.80;49.45
4410;BME280;2218;51.408;7.208;2023-02-19T02:03:11;99817.22;;;18.81;49.34
4410;BME280;2218;51.408;7.208;2023-02-19T02:05:53;99813.72;;;18.80;49.28
4410;BME280;2218;51.408;7.208;2023-02-19T02:08:22;99812.03;;;18.79;49.51
4410;BME280;2218;51.408;7.208;2023-02-19T02:11:07;99816.44;;;18.79;49.39
4410;BME280;2218;51.408;7.208;2023-02-19T02:13:36;99821.72;;;18.79;49.77
4410;BME280;2218;51.408;7.208;2023-02-19T02:16:22;99816.56;;;18.77;49.70
4410;BME280;2218;51.408;7.208;2023-02-19T02:19:01;99816.44;;;18.79;49.70
4410;BME280;2218;51.408;7.208;2023-02-19T02:22:02;99820.03;;;18.78;49.64
4410;BME280;2218;51.408;7.208;2023-02-19T02:25:15;99827.09;;;18.77;49.53
4410;BME280;2218;51.408;7.208;2023-02-19T02:27:55;99827.09;;;18.77;49.76
4410;BME280;2218;51.408;7.208;2023-02-19T02:30:38;99828.88;;;18.77;49.44
4410;BME280;2218;51.408;7.208;2023-02-19T02:33:20;99834.16;;;18.77;49.14
4410;BME280;2218;51.408;7.208;2023-02-19T02:35:57;99835.94;;;18.76;49.52
4410;BME280;2218;51.408;7.208;2023-02-19T02:38:30;99831.63;;;18.75;49.62
4410;BME280;2218;51.408;7.208;2023-02-19T02:40:58;99834.25;;;18.75;49.45
4410;BME280;2218;51.408;7.208;2023-02-19T02:43:26;99833.41;;;18.75;49.32
4410;BME280;2218;51.408;7.208;2023-02-19T02:45:55;99827.28;;;18.74;49.82
4410;BME280;2218;51.408;7.208;2023-02-19T02:48:33;99830.78;;;18.75;49.77
4410;BME280;2218;51.408;7.208;2023-02-19T02:51:10;99830.84;;;18.73;49.65
4410;BME280;2218;51.408;7.208;2023-02-19T02:54:05;99830.78;;;18.75;49.36
4410;BME280;2218;51.408;7.208;2023-02-19T02:56:53;99823.91;;;18.72;49.46
4410;BME280;2218;51.408;7.208;2023-02-19T02:59:27;99828.22;;;18.73;49.73
4410;BME280;2218;51.408;7.208;2023-02-19T03:02:01;99824.03;;;18.71;49.57
4410;BME280;2218;51.408;7.208;2023-02-19T03:04:47;99826.66;;;18.71;49.76
4410;BME280;2218;51.408;7.208;2023-02-19T03:07:38;99840.66;;;18.71;49.75
4410;BME280;2218;51.408;7.208;2023-02-19T03:10:12;99833.72;;;18.70;49.67
4410;BME280;2218;51.408;7.208;2023-02-19T03:12:43;99833.72;;;18.70;49.54
4410;BME280;2218;51.408;7.208;2023-02-19T03:15:34;99842.34;;;18.72;49.57
4410;BME280;2218;51.408;7.208;2023-02-19T03:18:27;99844.03;;;18.73;49.72
4410;BME280;2218;51.408;7.208;2023-02-19T03:21:19;99836.13;;;18.73;49.68
4410;BME280;2218;51.408;7.208;2023-02-19T03:23:48;99846.66;;;18.73;49.64
4410;BME280;2218;51.408;7.208;2023-02-19T03:26:37;99846.56;;;18.75;49.55
4410;BME280;2218;51.408;7.208;2023-02-19T03:29:07;99847.41;;;18.75;49.39
4410;BME280;2218;51.408;7.208;2023-02-19T03:31:57;99853.53;;;18.76;49.58
4410;BME280;2218;51.408;7.208;2023-02-19T03:34:34;99855.31;;;18.75;49.62
4410;BME280;2218;51.408;7.208;2023-02-19T03:37:11;99853.41;;;18.77;49.30
4410;BME280;2218;51.408;7.208;2023-02-19T03:39:39;99858.69;;;18.77;49.35
4410;BME280;2218;51.408;7.208;2023-02-19T03:42:26;99860.38;;;18.78;49.47
4410;BME280;2218;51.408;7.208;2023-02-19T03:45:15;99863.00;;;18.78;49.34
4410;BME280;2218;51.408;7.208;2023-02-19T03:47:52;99861.19;;;18.79;49.84
4410;BME280;2218;51.408;7.208;2023-02-19T03:50:27;99875.31;;;18.78;49.34
4410;BME280;2218;51.408;7.208;2023-02-19T03:53:05;99881.34;;;18.80;49.62
4410;BME280;2218;51.408;7.208;2023-02-19T03:55:43;99885.75;;;18.79;49.08
4410;BME280;2218;51.408;7.208;2023-02-19T03:58:19;99893.63;;;18.79;49.29
4410;BME280;2218;51.408;7.208;2023-02-19T04:00:56;99887.47;;;18.80;49.50
4410;BME280;2218;51.408;7.208;2023-02-19T04:03:33;99891.88;;;18.80;49.34
4410;BME280;2218;51.408;7.208;2023-02-19T04:06:09;99894.50;;;18.80;49.32
4410;BME280;2218;51.408;7.208;2023-02-19T04:08:42;99900.63;;;18.80;49.11
4410;BME280;2218;51.408;7.208;2023-02-19T04:11:13;99898.00;;;18.80;49.40
4410;BME280;2218;51.408;7.208;2023-02-19T04:13:45;99905.88;;;18.80;49.35
4410;BME280;2218;51.408;7.208;2023-02-19T04:16:19;99913.78;;;18.80;49.32
4410;BME280;2218;51.408;7.208;2023-02-19T04:18:53;99926.84;;;18.82;49.56
4410;BME280;2218;51.408;7.208;2023-02-19T04:21:22;99917.25;;;18.81;49.34
4410;BME280;2218;51.408;7.208;2023-02-19T04:23:50;99920.72;;;18.81;49.39
4410;BME280;2218;51.408;7.208;2023-02-19T04:26:21;99926.00;;;18.81;49.50
4410;BME280;2218;51.408;7.208;2023-02-19T04:28:48;99924.22;;;18.82;49.57
4410;BME280;2218;51.408;7.208;2023-02-19T04:31:15;99923.38;;;18.81;49.40
4410;BME280;2218;51.408;7.208;2023-02-19T04:33:42;99931.28;;;18.81;49.47
4410;BME280;2218;51.408;7.208;2023-02-19T04:36:09;99932.94;;;18.82;49.15
4410;BME280;2218;51.408;7.208;2023-02-19T04:38:38;99926.84;;;18.82;49.49
4410;BME280;2218;51.408;7.208;2023-02-19T04:41:05;99931.28;;;18.81;49.46
4410;BME280;2218;51.408;7.208;2023-02-19T04:43:32;99941.81;;;18.81;49.20
4410;BME280;2218;51.408;7.208;2023-02-19T04:46:00;99941.81;;;18.81;49.32
4410;BME280;2218;51.408;7.208;2023-02-19T04:48:27;99947.91;;;18.82;49.43
4410;BME280;2218;51.408;7.208;2023-02-19T04:50:54;99946.97;;;18.83;48.99
4410;BME280;2218;51.408;7.208;2023-02-19T04:53:22;99945.28;;;18.82;49.24
4410;BME280;2218;51.408;7.208;2023-02-19T04:55:50;99955.69;;;18.83;49.57
4410;BME280;2218;51.408;7.208;2023-02-19T04:58:19;99955.69;;;18.83;49.47
4410;BME280;2218;51.408;7.208;2023-02-19T05:00:51;99956.53;;;18.84;49.32
4410;BME280;2218;51.408;7.208;2023-02-19T05:03:18;99966.22;;;18.83;49.34
4410;BME280;2218;51.408;7.208;2023-02-19T05:05:45;99966.22;;;18.83;49.47
4410;BME280;2218;51.408;7.208;2023-02-19T05:08:12;99971.50;;;18.83;49.40
4410;BME280;2218;51.408;7.208;2023-02-19T05:10:39;99966.22;;;18.83;49.31
4410;BME280;2218;51.408;7.208;2023-02-19T05:13:07;99971.50;;;18.83;49.44
4410;BME280;2218;51.408;7.208;2023-02-19T05:15:34;99966.22;;;18.83;49.29
4410;BME280;2218;51.408;7.208;2023-02-19T05:18:02;99973.19;;;18.84;49.23
4410;BME280;2218;51.408;7.208;2023-02-19T05:20:29;99988.97;;;18.84;49.18
4410;BME280;2218;51.408;7.208;2023-02-19T05:22:56;99984.59;;;18.85;49.27
4410;BME280;2218;51.408;7.208;2023-02-19T05:25:23;99983.72;;;18.84;49.08
4410;BME280;2218;51.408;7.208;2023-02-19T05:27:50;99988.97;;;18.84;49.07
4410;BME280;2218;51.408;7.208;2023-02-19T05:30:39;99995.97;;;18.85;49.19
4410;BME280;2218;51.408;7.208;2023-02-19T05:33:05;99992.50;;;18.85;49.33
4410;BME280;2218;51.408;7.208;2023-02-19T05:35:32;100000.28;;;18.87;49.05
4410;BME280;2218;51.408;7.208;2023-02-19T05:37:59;100002.06;;;18.86;49.40
4410;BME280;2218;51.408;7.208;2023-02-19T05:40:26;100004.72;;;18.86;49.06
4410;BME280;2218;51.408;7.208;2023-02-19T05:42:53;100006.50;;;18.85;49.12
4410;BME280;2218;51.408;7.208;2023-02-19T05:45:20;100009.13;;;18.85;49.40
4410;BME280;2218;51.408;7.208;2023-02-19T05:47:49;100017.88;;;18.86;49.08
4410;BME280;2218;51.408;7.208;2023-02-19T05:50:16;100017.03;;;18.85;49.41
4410;BME280;2218;51.408;7.208;2023-02-19T05:52:43;100021.34;;;18.87;49.27
4410;BME280;2218;51.408;7.208;2023-02-19T05:55:11;100021.34;;;18.87;49.13
4410;BME280;2218;51.408;7.208;2023-02-19T05:57:39;100023.16;;;18.86;49.38
4410;BME280;2218;51.408;7.208;2023-02-19T06:00:09;100023.16;;;18.86;49.24
4410;BME280;2218;51.408;7.208;2023-02-19T06:02:38;100015.25;;;18.86;49.55
4410;BME280;2218;51.408;7.208;2023-02-19T06:05:07;100020.50;;;18.86;49.19
4410;BME280;2218;51.408;7.208;2023-02-19T06:07:35;100029.25;;;18.87;49.37
4410;BME280;2218;51.408;7.208;2023-02-19T06:10:05;100032.84;;;18.85;49.00
4410;BME280;2218;51.408;7.208;2023-02-19T06:12:32;100034.53;;;18.87;48.94
4410;BME280;2218;51.408;7.208;2023-02-19T06:14:59;100033.69;;;18.86;48.91
4410;BME280;2218;51.408;7.208;2023-02-19T06:17:26;100038.94;;;18.86;49.10
4410;BME280;2218;51.408;7.208;2023-02-19T06:19:53;100045.06;;;18.87;49.20
4410;BME280;2218;51.408;7.208;2023-02-19T06:22:21;100042.41;;;18.87;49.10
4410;BME280;2218;51.408;7.208;2023-02-19T06:24:48;100035.47;;;18.85;48.87
4410;BME280;2218;51.408;7.208;2023-02-19T06:27:15;100041.47;;;18.88;49.22
4410;BME280;2218;51.408;7.208;2023-02-19T06:29:42;100052.94;;;18.87;49.12
4410;BME280;2218;51.408;7.208;2023-02-19T06:32:09;100051.16;;;18.87;48.83
4410;BME280;2218;51.408;7.208;2023-02-19T06:34:36;100056.53;;;18.85;49.04
4410;BME280;2218;51.408;7.208;2023-02-19T06:37:03;100053.91;;;18.85;48.86
4410;BME280;2218;51.408;7.208;2023-02-19T06:39:31;100062.66;;;18.86;48.87
4410;BME280;2218;51.408;7.208;2023-02-19T06:41:58;100066.13;;;18.87;49.00
4410;BME280;2218;51.408;7.208;2023-02-19T06:44:25;100054.75;;;18.86;49.21
4410;BME280;2218;51.408;7.208;2023-02-19T06:46:54;100065.28;;;18.86;48.99
4410;BME280;2218;51.408;7.208;2023-02-19T06:49:21;100076.66;;;18.87;48.94
4410;BME280;2218;51.408;7.208;2023-02-19T06:51:48;100076.66;;;18.87;48.84
4410;BME280;2218;51.408;7.208;2023-02-19T06:54:15;100081.91;;;18.87;49.28
4410;BME280;2218;51.408;7.208;2023-02-19T06:56:43;100081.06;;;18.86;49.19
4410;BME280;2218;51.408;7.208;2023-02-19T06:59:13;100094.25;;;18.86;49.20
4410;BME280;2218;51.408;7.208;2023-02-19T07:01:42;100091.63;;;18.86;49.30
4410;BME280;2218;51.408;7.208;2023-02-19T07:04:10;100091.63;;;18.86;48.95
4410;BME280;2218;51.408;7.208;2023-02-19T07:06:37;100103.94;;;18.85;49.12
4410;BME280;2218;51.408;7.208;2023-02-19T07:09:06;100103.00;;;18.87;49.10
4410;BME280;2218;51.408;7.208;2023-02-19T07:11:35;100106.56;;;18.85;48.87
4410;BME280;2218;51.408;7.208;2023-02-19T07:14:09;100117.09;;;18.85;49.10
4410;BME280;2218;51.408;7.208;2023-02-19T07:16:39;100118.78;;;18.87;48.86
4410;BME280;2218;51.408;7.208;2023-02-19T07:19:06;100135.44;;;18.87;48.57
4410;BME280;2218;51.408;7.208;2023-02-19T07:21:34;100127.63;;;18.85;48.82
4410;BME280;2218;51.408;7.208;2023-02-19T07:24:03;100135.53;;;18.85;49.08
4410;BME280;2218;51.408;7.208;2023-02-19T07:26:31;100140.81;;;18.85;49.48
4410;BME280;2218;51.408;7.208;2023-02-19T07:28:58;100150.38;;;18.87;48.82
4410;BME280;2218;51.408;7.208;2023-02-19T07:31:27;100149.53;;;18.86;48.98
4410;BME280;2218;51.408;7.208;2023-02-19T07:33:54;100143.44;;;18.85;49.04
4410;BME280;2218;51.408;7.208;2023-02-19T07:36:23;100154.81;;;18.86;48.89
4410;BME280;2218;51.408;7.208;2023-02-19T07:38:53;100166.19;;;18.87;48.80
4410;BME280;2218;51.408;7.208;2023-02-19T07:41:21;100158.28;;;18.87;48.72
4410;BME280;2218;51.408;7.208;2023-02-19T07:43:48;100162.63;;;18.88;48.71
4410;BME280;2218;51.408;7.208;2023-02-19T07:46:15;100174.09;;;18.87;48.95
4410;BME280;2218;51.408;7.208;2023-02-19T07:48:43;100173.16;;;18.88;49.13
4410;BME280;2218;51.408;7.208;2023-02-19T07:51:13;100177.56;;;18.87;48.98
4410;BME280;2218;51.408;7.208;2023-02-19T07:53:41;100181.91;;;18.88;49.03
4410;BME280;2218;51.408;7.208;2023-02-19T07:56:11;100180.09;;;18.89;48.88
4410;BME280;2218;51.408;7.208;2023-02-19T07:58:39;100176.63;;;18.88;48.85
4410;BME280;2218;51.408;7.208;2023-02-19T08:01:09;100177.47;;;18.89;48.92
4410;BME280;2218;51.408;7.208;2023-02-19T08:03:37;100195.06;;;18.88;49.02
4410;BME280;2218;51.408;7.208;2023-02-19T08:06:05;100191.59;;;18.88;48.79
4410;BME280;2218;51.408;7.208;2023-02-19T08:08:32;100191.59;;;18.88;48.79
4410;BME280;2218;51.408;7.208;2023-02-19T08:11:01;100199.47;;;18.88;48.94
4410;BME280;2218;51.408;7.208;2023-02-19T08:13:51;100210.88;;;18.88;48.86
4410;BME280;2218;51.408;7.208;2023-02-19T08:16:19;100222.25;;;18.89;48.86
4410;BME280;2218;51.408;7.208;2023-02-19T08:18:47;100230.13;;;18.89;49.00
4410;BME280;2218;51.408;7.208;2023-02-19T08:21:15;100224.03;;;18.88;49.00
4410;BME280;2218;51.408;7.208;2023-02-19T08:23:45;100224.03;;;18.88;48.87
4410;BME280;2218;51.408;7.208;2023-02-19T08:26:12;100225.81;;;18.88;48.87
4410;BME280;2218;51.408;7.208;2023-02-19T08:28:39;100225.81;;;18.88;49.04
4410;BME280;2218;51.408;7.208;2023-02-19T08:31:09;100218.75;;;18.88;48.97
4410;BME280;2218;51.408;7.208;2023-02-19T08:33:37;100230.13;;;18.89;48.95
4410;BME280;2218;51.408;7.208;2023-02-19T08:36:07;100226.66;;;18.88;48.97
4410;BME280;2218;51.408;7.208;2023-02-19T08:38:37;100228.34;;;18.89;48.78
4410;BME280;2218;51.408;7.208;2023-02-19T08:41:05;100235.41;;;18.89;48.73
4410;BME280;2218;51.408;7.208;2023-02-19T08:43:32;100240.69;;;18.89;48.67
4410;BME280;2218;51.408;7.208;2023-02-19T08:45:59;100228.34;;;18.89;48.48
4410;BME280;2218;51.408;7.208;2023-02-19T08:48:27;100236.25;;;18.89;48.87
4410;BME280;2218;51.408;7.208;2023-02-19T08:50:55;100239.75;;;18.90;48.95
4410;BME280;2218;51.408;7.208;2023-02-19T08:53:23;100234.41;;;18.91;48.77
4410;BME280;2218;51.408;7.208;2023-02-19T08:55:52;100245.88;;;18.90;48.79
4410;BME280;2218;51.408;7.208;2023-02-19T08:58:19;100241.44;;;18.91;49.03
4410;BME280;2218;51.408;7.208;2023-02-19T09:00:46;100243.25;;;18.90;48.67
4410;BME280;2218;51.408;7.208;2023-02-19T09:03:14;100246.72;;;18.91;48.82
4410;BME280;2218;51.408;7.208;2023-02-19T09:05:41;100237.03;;;18.91;48.74
4410;BME280;2218;51.408;7.208;2023-02-19T09:08:08;100251.03;;;18.92;48.66
4410;BME280;2218;51.408;7.208;2023-02-19T09:10:35;100250.09;;;18.93;48.86
4410;BME280;2218;51.408;7.208;2023-02-19T09:13:03;100255.38;;;18.93;48.58
4410;BME280;2218;51.408;7.208;2023-02-19T09:15:30;100265.91;;;18.93;48.70
4410;BME280;2218;51.408;7.208;2023-02-19T09:17:58;100272.13;;;18.92;48.94
4410;BME280;2218;51.408;7.208;2023-02-19T09:20:26;100266.00;;;18.91;48.57
4410;BME280;2218;51.408;7.208;2023-02-19T09:22:56;100275.69;;;18.91;48.49
4410;BME280;2218;51.408;7.208;2023-02-19T09:25:24;100272.22;;;18.90;48.53
4410;BME280;2218;51.408;7.208;2023-02-19T09:27:54;100285.28;;;18.92;48.83
4410;BME280;2218;51.408;7.208;2023-02-19T09:30:23;100296.66;;;18.92;48.93
4410;BME280;2218;51.408;7.208;2023-02-19T09:32:50;100295.81;;;18.92;48.87
4410;BME280;2218;51.408;7.208;2023-02-19T09:35:17;100294.13;;;18.91;48.54
4410;BME280;2218;51.408;7.208;2023-02-19T09:37:44;100300.25;;;18.91;48.88
4410;BME280;2218;51.408;7.208;2023-02-19T09:40:11;100296.66;;;18.92;48.91
4410;BME280;2218;51.408;7.208;2023-02-19T09:42:40;100296.66;;;18.92;48.86
4410;BME280;2218;51.408;7.208;2023-02-19T09:45:24;100304.47;;;18.94;48.96
4410;BME280;2218;51.408;7.208;2023-02-19T09:47:55;100306.25;;;18.93;48.61
4410;BME280;2218;51.408;7.208;2023-02-19T09:50:31;100303.63;;;18.93;48.59
4410;BME280;2218;51.408;7.208;2023-02-19T09:53:03;100312.38;;;18.94;48.61
4410;BME280;2218;51.408;7.208;2023-02-19T09:55:34;100327.25;;;18.95;48.59
4410;BME280;2218;51.408;7.208;2023-02-19T09:58:18;100323.69;;;18.96;48.57
4410;BME280;2218;51.408;7.208;2023-02-19T10:00:53;100327.25;;;18.95;48.49
4410;BME280;2218;51.408;7.208;2023-02-19T10:03:24;100334.28;;;18.94;48.41
4410;BME280;2218;51.408;7.208;2023-02-19T10:05:56;100338.69;;;18.94;48.56
4410;BME280;2218;51.408;7.208;2023-02-19T10:08:24;100348.31;;;18.95;48.55
4410;BME280;2218;51.408;7.208;2023-02-19T10:10:52;100358.88;;;18.95;48.49
4410;BME280;2218;51.408;7.208;2023-02-19T10:13:22;100355.34;;;18.94;48.68
4410;BME280;2218;51.408;7.208;2023-02-19T10:15:54;100375.50;;;18.95;48.58
4410;BME280;2218;51.408;7.208;2023-02-19T10:18:26;100381.63;;;18.96;48.43
4410;BME280;2218;51.408;7.208;2023-02-19T10:20:56;100376.34;;;18.96;48.74
4410;BME280;2218;51.408;7.208;2023-02-19T10:23:24;100373.72;;;18.96;48.67
4410;BME280;2218;51.408;7.208;2023-02-19T10:25:55;100370.16;;;18.97;48.69
4410;BME280;2218;51.408;7.208;2023-02-19T10:28:27;100371.00;;;18.97;48.37
4410;BME280;2218;51.408;7.208;2023-02-19T10:30:58;100386.78;;;18.97;48.85
4410;BME280;2218;51.408;7.208;2023-02-19T10:33:26;100394.59;;;18.99;48.57
4410;BME280;2218;51.408;7.208;2023-02-19T10:35:56;100409.50;;;19.00;48.42
4410;BME280;2218;51.408;7.208;2023-02-19T10:38:29;100404.22;;;19.00;48.44
4410;BME280;2218;51.408;7.208;2023-02-19T10:41:02;100401.50;;;19.01;48.33
4410;BME280;2218;51.408;7.208;2023-02-19T10:43:34;100399.72;;;19.02;48.30
4410;BME280;2218;51.408;7.208;2023-02-19T10:46:14;100406.75;;;19.01;48.28
4410;BME280;2218;51.408;7.208;2023-02-19T10:48:49;100404.22;;;19.00;48.42
4410;BME280;2218;51.408;7.208;2023-02-19T10:51:18;100397.22;;;18.99;48.51
4410;BME280;2218;51.408;7.208;2023-02-19T10:53:50;100406.88;;;19.00;48.36
4410;BME280;2218;51.408;7.208;2023-02-19T10:56:23;100414.75;;;19.00;48.61
4410;BME280;2218;51.408;7.208;2023-02-19T10:58:51;100420.03;;;19.00;48.77
4410;BME280;2218;51.408;7.208;2023-02-19T11:01:22;100432.31;;;18.99;48.45
4410;BME280;2218;51.408;7.208;2023-02-19T11:03:52;100434.13;;;18.99;48.62
4410;BME280;2218;51.408;7.208;2023-02-19T11:06:24;100428.00;;;18.98;48.49
4410;BME280;2218;51.408;7.208;2023-02-19T11:08:56;100428.84;;;18.99;48.64
4410;BME280;2218;51.408;7.208;2023-02-19T11:11:30;100433.19;;;19.00;48.81
4410;BME280;2218;51.408;7.208;2023-02-19T11:14:00;100428.84;;;18.99;48.36
4410;BME280;2218;51.408;7.208;2023-02-19T11:16:43;100431.47;;;18.99;48.87
4410;BME280;2218;51.408;7.208;2023-02-19T11:19:27;100434.13;;;18.99;48.45
4410;BME280;2218;51.408;7.208;2023-02-19T11:21:55;100429.69;;;18.99;48.56
4410;BME280;2218;51.408;7.208;2023-02-19T11:24:30;100441.09;;;19.00;48.69
4410;BME280;2218;51.408;7.208;2023-02-19T11:27:01;100436.75;;;18.99;48.31
4410;BME280;2218;51.408;7.208;2023-02-19T11:29:29;100433.28;;;18.98;48.47
4410;BME280;2218;51.408;7.208;2023-02-19T11:32:25;100429.69;;;18.99;48.44
4410;BME280;2218;51.408;7.208;2023-02-19T11:35:16;100429.69;;;18.99;48.62
4410;BME280;2218;51.408;7.208;2023-02-19T11:37:57;100441.09;;;19.00;48.32
4410;BME280;2218;51.408;7.208;2023-02-19T11:40:38;100437.53;;;19.01;48.21
4410;BME280;2218;51.408;7.208;2023-02-19T11:43:51;100427.06;;;18.99;48.48
4410;BME280;2218;51.408;7.208;2023-02-19T11:46:30;100420.03;;;19.00;48.34
4410;BME280;2218;51.408;7.208;2023-02-19T11:49:24;100417.41;;;19.00;48.15
4410;BME280;2218;51.408;7.208;2023-02-19T11:52:21;100413.88;;;18.99;48.42
4410;BME280;2218;51.408;7.208;2023-02-19T11:55:01;100408.56;;;19.01;48.31
4410;BME280;2218;51.408;7.208;2023-02-19T11:57:40;100406.88;;;19.00;48.13
4410;BME280;2218;51.408;7.208;2023-02-19T12:00:24;100409.31;;;19.03;48.11
4410;BME280;2218;51.408;7.208;2023-02-19T12:03:19;100410.16;;;19.03;48.22
4410;BME280;2218;51.408;7.208;2023-02-19T12:06:16;100403.19;;;19.02;48.40
4410;BME280;2218;51.408;7.208;2023-02-19T12:09:16;100406.75;;;19.01;48.04
4410;BME280;2218;51.408;7.208;2023-02-19T12:12:00;100419.09;;;19.01;48.12
4410;BME280;2218;51.408;7.208;2023-02-19T12:15:19;100424.34;;;19.01;48.28
4410;BME280;2218;51.408;7.208;2023-02-19T12:18:16;100426.16;;;19.00;48.20
4410;BME280;2218;51.408;7.208;2023-02-19T12:21:02;100437.53;;;19.01;48.26
4410;BME280;2218;51.408;7.208;2023-02-19T12:24:15;100442.81;;;19.01;48.28
4410;BME280;2218;51.408;7.208;2023-02-19T12:27:00;100443.66;;;19.01;48.01
4410;BME280;2218;51.408;7.208;2023-02-19T12:29:48;100437.53;;;19.01;48.35
4410;BME280;2218;51.408;7.208;2023-02-19T12:32:41;100432.25;;;19.01;48.12
4410;BME280;2218;51.408;7.208;2023-02-19T12:35:43;100446.19;;;19.03;48.17
4410;BME280;2218;51.408;7.208;2023-02-19T12:38:29;100436.50;;;19.03;48.22
4410;BME280;2218;51.408;7.208;2023-02-19T12:41:16;100433.00;;;19.03;48.20
4410;BME280;2218;51.408;7.208;2023-02-19T12:43:51;100430.38;;;19.03;48.30
4410;BME280;2218;51.408;7.208;2023-02-19T12:46:28;100438.28;;;19.03;48.24
4410;BME280;2218;51.408;7.208;2023-02-19T12:49:04;100440.91;;;19.03;48.07
4410;BME280;2218;51.408;7.208;2023-02-19T12:51:42;100439.97;;;19.04;48.11
4410;BME280;2218;51.408;7.208;2023-02-19T12:54:20;100431.22;;;19.03;48.28
4410;BME280;2218;51.408;7.208;2023-02-19T12:56:54;100437.44;;;19.02;48.08
4410;BME280;2218;51.408;7.208;2023-02-19T12:59:31;100449.75;;;19.02;48.33
4410;BME280;2218;51.408;7.208;2023-02-19T13:02:09;100453.34;;;19.01;48.26
4410;BME280;2218;51.408;7.208;2023-02-19T13:04:45;100455.97;;;19.01;48.00
4410;BME280;2218;51.408;7.208;2023-02-19T13:07:21;100466.56;;;18.99;48.27
4410;BME280;2218;51.408;7.208;2023-02-19T13:09:55;100473.56;;;19.00;47.98
4410;BME280;2218;51.408;7.208;2023-02-19T13:12:28;100476.19;;;19.00;48.06
4410;BME280;2218;51.408;7.208;2023-02-19T13:14:59;100477.97;;;19.00;47.98
4410;BME280;2218;51.408;7.208;2023-02-19T13:17:35;100478.84;;;19.00;47.95
4410;BME280;2218;51.408;7.208;2023-02-19T13:20:23;100472.72;;;19.00;48.05
4410;BME280;2218;51.408;7.208;2023-02-19T13:23:02;100465.72;;;18.99;48.23
4410;BME280;2218;51.408;7.208;2023-02-19T13:26:23;100471.00;;;18.99;48.24
4410;BME280;2218;51.408;7.208;2023-02-19T13:29:14;100471.00;;;18.99;48.15
4410;BME280;2218;51.408;7.208;2023-02-19T13:32:04;100475.34;;;19.00;47.93
4410;BME280;2218;51.408;7.208;2023-02-19T13:34:53;100470.09;;;19.00;48.20
4410;BME280;2218;51.408;7.208;2023-02-19T13:37:25;100473.56;;;19.00;48.09
4410;BME280;2218;51.408;7.208;2023-02-19T13:39:55;100482.31;;;19.01;48.02
4410;BME280;2218;51.408;7.208;2023-02-19T13:42:30;100483.25;;;19.00;48.11
4410;BME280;2218;51.408;7.208;2023-02-19T13:45:00;100483.25;;;19.00;48.07
4410;BME280;2218;51.408;7.208;2023-02-19T13:47:58;100485.88;;;19.00;48.10